Time;durP1;ratioP1;P1;durP2;ratioP2;P2;SDS_P1;SDS_P2;PMS_P1;PMS_P2;Temp;Humidity;BMP_temperature;BMP_pressure;BME280_temperature;BME280_humidity;BME280_pressure;Samples;Min_cycle;Max_cycle;Signal;HPM_P1;HPM_P2
2023/04/15 00:01:25;;;;;;;0.00;0.00;;;6.10;99.90;;;;;;4970648;28;20031;-75
2023/04/15 00:03:53;;;;;;;0.10;0.10;;;4.90;99.90;;;;;;4976493;28;20034;-75
2023/04/15 00:06:20;;;;;;;0.00;0.00;;;5.90;99.90;;;;;;4976113;28;20029;-77
2023/04/15 00:08:46;;;;;;;0.00;0.00;;;6.10;99.90;;;;;;4976243;28;20023;-75
2023/04/15 00:11:13;;;;;;;0.00;0.00;;;;;;;;;;4970914;28;20022;-74
2023/04/15 00:13:39;;;;;;;0.10;0.10;;;6.20;99.90;;;;;;4967754;28;20031;-74
2023/04/15 00:16:07;;;;;;;0.05;0.05;;;6.30;99.90;;;;;;4965747;28;20143;-73
2023/04/15 00:18:34;;;;;;;0.08;0.08;;;;;;;;;;4965745;28;20118;-74
2023/04/15 00:21:00;;;;;;;0.03;0.03;;;6.30;99.90;;;;;;4969192;28;20447;-74
2023/04/15 00:23:27;;;;;;;0.10;0.10;;;6.30;99.90;;;;;;4965917;28;20049;-74
2023/04/15 00:25:54;;;;;;;0.00;0.00;;;;;;;;;;4965053;28;20038;-74
2023/04/15 00:28:20;;;;;;;1.83;1.70;;;;;;;;;;4965738;28;20246;-74
2023/04/15 00:30:46;;;;;;;0.00;0.00;;;6.20;99.90;;;;;;4965091;28;20063;-74
2023/04/15 00:33:18;;;;;;;0.00;0.00;;;5.80;99.90;;;;;;4965817;28;20057;-74
2023/04/15 00:35:44;;;;;;;0.00;0.00;;;;;;;;;;4967781;28;20027;-74
2023/04/15 00:38:10;;;;;;;0.20;0.20;;;;;;;;;;4966301;28;20560;-74
2023/04/15 00:40:36;;;;;;;0.10;0.10;;;5.70;99.90;;;;;;4966623;28;20026;-74
2023/04/15 00:43:03;;;;;;;0.10;0.10;;;;;;;;;;4967264;28;20533;-74
2023/04/15 00:45:29;;;;;;;0.10;0.10;;;5.70;99.90;;;;;;4966938;28;20351;-74
2023/04/15 00:47:55;;;;;;;0.00;0.00;;;;;;;;;;4950786;28;20034;-73
2023/04/15 00:50:21;;;;;;;0.10;0.10;;;;;;;;;;4956377;28;20082;-74
2023/04/15 00:52:47;;;;;;;0.08;0.08;;;5.70;99.90;;;;;;4968777;28;20030;-74
2023/04/15 00:55:13;;;;;;;0.00;0.00;;;5.70;99.90;;;;;;4950981;28;20440;-75
2023/04/15 00:57:40;;;;;;;0.00;0.00;;;;;;;;;;4968150;28;20564;-77
2023/04/15 01:00:07;;;;;;;0.08;0.08;;;5.40;99.90;;;;;;4965929;28;20027;-73
2023/04/15 01:02:35;;;;;;;0.10;0.10;;;5.50;99.90;;;;;;4968231;28;20039;-74
2023/04/15 01:05:01;;;;;;;0.10;0.10;;;5.40;99.90;;;;;;4971855;28;20114;-74
2023/04/15 01:07:27;;;;;;;0.00;0.00;;;5.30;99.90;;;;;;4971922;28;20045;-74
2023/04/15 01:09:52;;;;;;;0.10;0.10;;;5.30;99.90;;;;;;4972882;28;20101;-74
2023/04/15 01:12:19;;;;;;;2.55;1.65;;;5.40;99.90;;;;;;4973005;28;20027;-76
2023/04/15 01:14:45;;;;;;;0.00;0.00;;;5.50;99.90;;;;;;4971680;28;20573;-74
2023/04/15 01:17:12;;;;;;;0.40;0.40;;;5.50;99.90;;;;;;4975206;28;20069;-74
2023/04/15 01:19:38;;;;;;;0.10;0.10;;;5.50;99.90;;;;;;4973991;28;20050;-74
2023/04/15 01:22:04;;;;;;;0.10;0.10;;;5.40;99.90;;;;;;4971133;28;20034;-73
2023/04/15 01:24:32;;;;;;;0.10;0.10;;;5.40;99.90;;;;;;4956333;28;20042;-73
2023/04/15 01:26:58;;;;;;;11.57;11.05;;;5.30;99.90;;;;;;4970764;28;20478;-74
2023/04/15 01:29:24;;;;;;;0.13;0.13;;;5.40;99.90;;;;;;4971591;28;20094;-74
2023/04/15 01:31:55;;;;;;;0.30;0.30;;;5.30;99.90;;;;;;4970556;28;20413;-77
2023/04/15 01:34:21;;;;;;;0.00;0.00;;;5.30;99.90;;;;;;4970933;28;20041;-74
2023/04/15 01:36:47;;;;;;;0.03;0.03;;;5.40;99.90;;;;;;4972683;28;20019;-75
2023/04/15 01:39:13;;;;;;;0.10;0.10;;;5.20;99.90;;;;;;4972310;28;20027;-74
2023/04/15 01:41:41;;;;;;;0.10;0.10;;;5.20;99.90;;;;;;4972613;28;20205;-75
2023/04/15 01:44:07;;;;;;;0.10;0.10;;;5.30;99.90;;;;;;4957021;28;20039;-75
2023/04/15 01:46:33;;;;;;;0.10;0.10;;;5.30;99.90;;;;;;4972336;28;20031;-75
2023/04/15 01:48:59;;;;;;;0.00;0.00;;;5.30;99.90;;;;;;4972811;28;20065;-74
2023/04/15 01:51:26;;;;;;;0.10;0.10;;;5.10;99.90;;;;;;4972477;28;20056;-74
2023/04/15 01:53:52;;;;;;;23.58;22.02;;;5.10;99.90;;;;;;4970844;28;20022;-74
2023/04/15 01:56:18;;;;;;;0.10;0.10;;;4.90;99.90;;;;;;4970346;28;20218;-75
2023/04/15 01:58:44;;;;;;;0.08;0.08;;;5.00;99.90;;;;;;4972648;28;20034;-75
2023/04/15 02:01:10;;;;;;;0.10;0.10;;;5.00;99.90;;;;;;4973151;28;20100;-75
2023/04/15 02:03:36;;;;;;;0.10;0.10;;;4.80;99.90;;;;;;4972784;28;20105;-74
2023/04/15 02:06:03;;;;;;;0.10;0.10;;;4.70;99.90;;;;;;4971856;28;20059;-75
2023/04/15 02:08:29;;;;;;;0.85;0.85;;;4.70;99.90;;;;;;4972105;28;20213;-75
2023/04/15 02:10:55;;;;;;;0.10;0.10;;;4.70;99.90;;;;;;4954148;28;20030;-75
2023/04/15 02:13:21;;;;;;;0.10;0.10;;;4.70;99.90;;;;;;4959650;28;20030;-75
2023/04/15 02:15:53;;;;;;;0.82;0.82;;;4.60;99.90;;;;;;4973011;28;20375;-74
2023/04/15 02:18:20;;;;;;;0.10;0.10;;;;;;;;;;4972977;28;20033;-75
2023/04/15 02:20:47;;;;;;;0.10;0.10;;;;;;;;;;4971664;28;20050;-74
2023/04/15 02:23:13;;;;;;;0.10;0.10;;;;;;;;;;4954940;28;20312;-75
2023/04/15 02:25:39;;;;;;;0.00;0.00;;;;;;;;;;4969457;28;20316;-74
2023/04/15 02:28:05;;;;;;;0.00;0.00;;;4.70;99.90;;;;;;4952828;28;20027;-76
2023/04/15 02:30:32;;;;;;;0.10;0.10;;;;;;;;;;4970137;28;20058;-73
2023/04/15 02:32:58;;;;;;;0.10;0.10;;;;;;;;;;4970574;28;20027;-74
2023/04/15 02:35:24;;;;;;;0.10;0.10;;;;;;;;;;4971772;28;20214;-73
2023/04/15 02:37:51;;;;;;;0.10;0.10;;;4.90;99.90;;;;;;4950218;28;20343;-76
2023/04/15 02:40:17;;;;;;;0.10;0.10;;;5.20;99.90;;;;;;4969397;28;20099;-73
2023/04/15 02:42:43;;;;;;;0.10;0.10;;;5.30;99.90;;;;;;4969489;28;20261;-74
2023/04/15 02:45:10;;;;;;;2.65;2.55;;;4.90;99.90;;;;;;4971771;28;20023;-77
2023/04/15 02:47:40;;;;;;;0.00;0.00;;;;;;;;;;4973149;28;20106;-74
2023/04/15 02:50:11;;;;;;;0.00;0.00;;;5.00;99.90;;;;;;4971745;28;20034;-74
2023/04/15 02:52:41;;;;;;;1.13;1.13;;;5.10;99.90;;;;;;4970962;28;20050;-75
2023/04/15 02:55:07;;;;;;;0.10;0.10;;;5.30;99.90;;;;;;4970877;28;20026;-76
2023/04/15 02:57:36;;;;;;;0.47;0.47;;;;;;;;;;4970682;28;20019;-75
2023/04/15 03:00:03;;;;;;;0.00;0.00;;;5.30;99.90;;;;;;4952464;28;20034;-74
2023/04/15 03:02:37;;;;;;;0.10;0.10;;;5.20;99.90;;;;;;4971848;28;20023;-74
2023/04/15 03:05:03;;;;;;;0.00;0.00;;;5.10;99.90;;;;;;4971651;28;20030;-75
2023/04/15 03:07:30;;;;;;;0.00;0.00;;;5.30;99.90;;;;;;4967578;28;20320;-74
2023/04/15 03:09:55;;;;;;;0.10;0.10;;;5.40;99.90;;;;;;4968134;28;20610;-75
2023/04/15 03:12:21;;;;;;;0.03;0.03;;;5.40;99.90;;;;;;4964118;28;20565;-74
2023/04/15 03:14:47;;;;;;;0.00;0.00;;;;;;;;;;4964612;28;20015;-74
2023/04/15 03:17:13;;;;;;;0.00;0.00;;;5.30;99.90;;;;;;4964171;28;20019;-75
2023/04/15 03:19:39;;;;;;;0.10;0.10;;;5.30;99.90;;;;;;4963741;28;20092;-74
2023/04/15 03:22:05;;;;;;;0.08;0.08;;;5.30;99.90;;;;;;4965289;28;20030;-74
2023/04/15 03:24:31;;;;;;;0.10;0.10;;;5.30;99.90;;;;;;4964325;28;20041;-74
2023/04/15 03:26:56;;;;;;;0.00;0.00;;;5.40;99.90;;;;;;4949244;28;20026;-78
2023/04/15 03:29:23;;;;;;;0.00;0.00;;;5.40;99.90;;;;;;4966423;28;20027;-73
2023/04/15 03:31:48;;;;;;;0.10;0.10;;;5.40;99.90;;;;;;4954053;28;20019;-74
2023/04/15 03:34:14;;;;;;;0.00;0.00;;;5.30;99.90;;;;;;4965676;28;20387;-73
2023/04/15 03:36:40;;;;;;;0.10;0.10;;;5.20;99.90;;;;;;4947906;28;20062;-73
2023/04/15 03:39:06;;;;;;;0.45;0.45;;;5.10;99.90;;;;;;4950712;28;20026;-74
2023/04/15 03:41:32;;;;;;;0.00;0.00;;;5.00;99.90;;;;;;4967551;28;20305;-74
2023/04/15 03:43:58;;;;;;;0.10;0.10;;;4.90;99.90;;;;;;4966587;28;20136;-75
2023/04/15 03:46:23;;;;;;;0.10;0.10;;;4.90;99.90;;;;;;4968693;28;20031;-76
2023/04/15 03:48:49;;;;;;;0.10;0.10;;;4.90;99.90;;;;;;4965908;28;20026;-74
2023/04/15 03:51:15;;;;;;;0.10;0.10;;;4.80;99.90;;;;;;4964423;28;20027;-74
2023/04/15 03:53:40;;;;;;;0.10;0.10;;;4.70;99.90;;;;;;4965177;28;20102;-74
2023/04/15 03:56:06;;;;;;;0.08;0.08;;;4.60;99.90;;;;;;4965848;28;20031;-74
2023/04/15 03:58:32;;;;;;;0.40;0.40;;;4.50;99.90;;;;;;4965091;28;20490;-75
2023/04/15 04:00:58;;;;;;;0.10;0.10;;;4.50;99.90;;;;;;4963351;28;20023;-73
2023/04/15 04:03:23;;;;;;;0.10;0.10;;;4.50;99.90;;;;;;4969937;28;20509;-74
2023/04/15 04:05:50;;;;;;;0.10;0.10;;;4.40;99.90;;;;;;4963600;28;20027;-75
2023/04/15 04:08:18;;;;;;;0.10;0.10;;;4.30;99.90;;;;;;4949756;28;20034;-75
2023/04/15 04:10:43;;;;;;;0.10;0.10;;;4.30;99.90;;;;;;4947382;28;20391;-74
2023/04/15 04:13:09;;;;;;;0.10;0.10;;;4.20;99.90;;;;;;4962775;28;20097;-80
2023/04/15 04:15:35;;;;;;;0.10;0.10;;;4.30;99.90;;;;;;4962912;28;20097;-78
2023/04/15 04:18:01;;;;;;;0.10;0.10;;;4.20;99.90;;;;;;4965573;28;20449;-80
2023/04/15 04:20:26;;;;;;;0.10;0.10;;;4.20;99.90;;;;;;4969884;28;20122;-74
2023/04/15 04:22:52;;;;;;;0.10;0.10;;;4.20;99.90;;;;;;4968481;28;20070;-73
2023/04/15 04:25:20;;;;;;;0.10;0.10;;;4.20;99.90;;;;;;4967117;28;20220;-73
2023/04/15 04:27:46;;;;;;;0.10;0.10;;;4.20;99.90;;;;;;4966066;28;20030;-73
2023/04/15 04:30:12;;;;;;;0.10;0.10;;;4.20;99.90;;;;;;4964668;28;20597;-74
2023/04/15 04:32:37;;;;;;;0.15;0.15;;;4.20;99.90;;;;;;4966853;28;20019;-74
2023/04/15 04:35:04;;;;;;;0.10;0.10;;;4.20;99.90;;;;;;4971957;28;20042;-75
2023/04/15 04:37:29;;;;;;;0.10;0.10;;;4.20;99.90;;;;;;4974374;28;20030;-74
2023/04/15 04:39:55;;;;;;;0.03;0.03;;;4.20;99.90;;;;;;4950569;28;20173;-74
2023/04/15 04:42:21;;;;;;;0.10;0.10;;;4.20;99.90;;;;;;4953577;28;20261;-74
2023/04/15 04:44:47;;;;;;;0.10;0.10;;;4.30;99.90;;;;;;4947657;28;20382;-74
2023/04/15 04:47:13;;;;;;;0.20;0.20;;;4.30;99.90;;;;;;4967974;28;20140;-73
2023/04/15 04:49:39;;;;;;;0.00;0.00;;;4.30;99.90;;;;;;4968722;28;20089;-73
2023/04/15 04:52:06;;;;;;;0.10;0.10;;;4.40;99.90;;;;;;4966049;28;20098;-74
2023/04/15 04:54:32;;;;;;;0.75;0.75;;;4.40;99.90;;;;;;4966074;28;20185;-74
2023/04/15 04:56:57;;;;;;;0.10;0.10;;;4.50;99.90;;;;;;4965663;28;20657;-73
2023/04/15 04:59:24;;;;;;;0.10;0.10;;;4.60;99.90;;;;;;4964186;28;20054;-74
2023/04/15 05:01:50;;;;;;;0.10;0.10;;;4.60;99.90;;;;;;4965779;28;20034;-74
2023/04/15 05:04:15;;;;;;;0.10;0.10;;;4.70;99.90;;;;;;4967206;28;20030;-74
2023/04/15 05:06:41;;;;;;;0.10;0.10;;;4.80;99.90;;;;;;4966519;28;20034;-75
2023/04/15 05:09:08;;;;;;;0.10;0.10;;;4.90;99.90;;;;;;4967461;28;20106;-73
2023/04/15 05:11:34;;;;;;;0.10;0.10;;;4.90;99.90;;;;;;4949908;28;20031;-73
2023/04/15 05:14:01;;;;;;;13.57;12.23;;;4.90;99.90;;;;;;4963906;28;20332;-73
2023/04/15 05:16:27;;;;;;;0.10;0.10;;;4.90;99.90;;;;;;4947475;28;20126;-74
2023/04/15 05:18:52;;;;;;;0.50;0.50;;;5.00;99.90;;;;;;4950251;28;20129;-74
2023/04/15 05:21:19;;;;;;;0.10;0.10;;;5.00;99.90;;;;;;4986888;28;20132;-75
2023/04/15 05:23:45;;;;;;;0.08;0.08;;;5.00;99.90;;;;;;4970195;28;20042;-73
2023/04/15 05:26:11;;;;;;;0.10;0.10;;;5.10;99.90;;;;;;4986845;28;20694;-73
2023/04/15 05:28:36;;;;;;;0.10;0.10;;;5.10;99.90;;;;;;4986748;28;20108;-74
2023/04/15 05:31:02;;;;;;;0.10;0.10;;;5.10;99.90;;;;;;4985832;28;20461;-74
2023/04/15 05:33:28;;;;;;;0.00;0.00;;;5.10;99.90;;;;;;4985301;28;20022;-74
2023/04/15 05:35:54;;;;;;;0.10;0.10;;;5.10;99.90;;;;;;4985067;28;20031;-74
2023/04/15 05:38:20;;;;;;;5.35;5.22;;;5.20;99.90;;;;;;4971767;28;20027;-73
2023/04/15 05:40:46;;;;;;;0.10;0.10;;;5.20;99.90;;;;;;4988775;28;20101;-74
2023/04/15 05:43:11;;;;;;;0.10;0.10;;;5.30;99.90;;;;;;4986443;28;20034;-73
2023/04/15 05:45:37;;;;;;;0.10;0.10;;;5.40;99.90;;;;;;4983612;28;20023;-75
2023/04/15 05:48:03;;;;;;;0.10;0.10;;;7.40;99.90;;;;;;4984415;28;20506;-73
2023/04/15 05:50:29;;;;;;;0.08;0.08;;;;;;;;;;4982630;28;20344;-73
2023/04/15 05:52:55;;;;;;;0.10;0.10;;;5.70;99.90;;;;;;4985708;28;20026;-74
2023/04/15 05:55:21;;;;;;;22.45;21.33;;;5.80;99.90;;;;;;4985197;28;20023;-74
2023/04/15 05:57:47;;;;;;;0.10;0.10;;;6.10;99.90;;;;;;4987440;28;20528;-75
2023/04/15 06:00:14;;;;;;;0.57;0.57;;;6.40;99.90;;;;;;4988863;28;20429;-74
2023/04/15 06:02:41;;;;;;;0.10;0.10;;;;;;;;;;4990216;28;20353;-74
2023/04/15 06:05:09;;;;;;;0.00;0.00;;;6.40;99.90;;;;;;4991597;28;20034;-74
2023/04/15 06:07:38;;;;;;;0.00;0.00;;;6.70;99.90;;;;;;4990833;28;20308;-74
2023/04/15 06:10:05;;;;;;;0.00;0.00;;;6.70;99.90;;;;;;4989371;28;20034;-74
2023/04/15 06:12:31;;;;;;;0.00;0.00;;;;;;;;;;4990079;28;20093;-74
2023/04/15 06:14:57;;;;;;;0.10;0.10;;;6.90;99.90;;;;;;4987047;28;20065;-74
2023/04/15 06:17:23;;;;;;;0.00;0.00;;;;;;;;;;4987722;28;20035;-75
2023/04/15 06:19:54;;;;;;;0.10;0.10;;;;;;;;;;4988801;28;20055;-74
2023/04/15 06:22:21;;;;;;;0.10;0.10;;;7.20;99.90;;;;;;4994039;28;20039;-76
2023/04/15 06:24:48;;;;;;;0.03;0.03;;;;;;;;;;4974312;28;20183;-74
2023/04/15 06:27:14;;;;;;;0.00;0.00;;;;;;;;;;4989602;28;20300;-75
2023/04/15 06:29:40;;;;;;;0.10;0.10;;;;;;;;;;4971812;28;20041;-74
2023/04/15 06:32:06;;;;;;;0.08;0.08;;;7.50;99.90;;;;;;4969203;28;20030;-74
2023/04/15 06:34:32;;;;;;;0.00;0.00;;;7.40;99.90;;;;;;4969255;28;20027;-73
2023/04/15 06:36:59;;;;;;;0.00;0.00;;;;;;;;;;4986867;28;20061;-74
2023/04/15 06:39:25;;;;;;;0.00;0.00;;;;;;;;;;4984059;28;20220;-77
2023/04/15 06:41:52;;;;;;;0.00;0.00;;;7.50;99.90;;;;;;4965917;28;20041;-75
2023/04/15 06:44:18;;;;;;;0.00;0.00;;;;;;;;;;4984700;28;20045;-76
2023/04/15 06:46:44;;;;;;;0.00;0.00;;;;;;;;;;4983658;28;20540;-74
2023/04/15 06:49:10;;;;;;;0.00;0.00;;;7.80;99.90;;;;;;4968123;28;20387;-73
2023/04/15 06:51:36;;;;;;;0.00;0.00;;;8.20;99.90;;;;;;4990049;28;20023;-73
2023/04/15 06:54:04;;;;;;;0.10;0.10;;;8.00;99.90;;;;;;4986360;28;20018;-74
2023/04/15 06:56:31;;;;;;;0.00;0.00;;;7.90;99.90;;;;;;4969551;28;20027;-74
2023/04/15 06:58:57;;;;;;;0.10;0.10;;;8.30;99.90;;;;;;4988029;28;20037;-74
2023/04/15 07:01:23;;;;;;;0.10;0.10;;;8.60;99.90;;;;;;4986187;28;20226;-76
2023/04/15 07:03:49;;;;;;;0.00;0.00;;;8.70;99.90;;;;;;4986353;28;20026;-74
2023/04/15 07:06:15;;;;;;;0.00;0.00;;;8.90;99.90;;;;;;4986066;28;20578;-74
2023/04/15 07:08:40;;;;;;;0.10;0.10;;;9.10;99.90;;;;;;4986475;28;20026;-76
2023/04/15 07:11:06;;;;;;;0.00;0.00;;;9.10;99.90;;;;;;4984852;28;20448;-73
2023/04/15 07:13:32;;;;;;;0.68;0.40;;;9.30;99.90;;;;;;4986021;28;20030;-74
2023/04/15 07:15:58;;;;;;;0.00;0.00;;;9.40;99.90;;;;;;4986491;28;20034;-74
2023/04/15 07:18:24;;;;;;;0.10;0.10;;;9.60;99.90;;;;;;4985963;28;20106;-75
2023/04/15 07:20:50;;;;;;;0.10;0.10;;;9.80;99.90;;;;;;4987076;28;20099;-74
2023/04/15 07:23:17;;;;;;;0.45;0.45;;;9.90;99.90;;;;;;4987462;28;20057;-74
2023/04/15 07:25:43;;;;;;;0.03;0.03;;;10.10;99.90;;;;;;4985866;28;20322;-75
2023/04/15 07:28:08;;;;;;;0.10;0.10;;;10.30;99.90;;;;;;4985747;28;20509;-73
2023/04/15 07:30:34;;;;;;;0.10;0.10;;;10.50;99.90;;;;;;4991373;28;20018;-75
2023/04/15 07:33:01;;;;;;;0.10;0.10;;;10.50;99.90;;;;;;4989455;28;20031;-74
2023/04/15 07:35:28;;;;;;;0.10;0.10;;;10.70;99.90;;;;;;4967486;28;20031;-75
2023/04/15 07:37:54;;;;;;;0.10;0.10;;;10.50;99.90;;;;;;4973005;28;20029;-75
2023/04/15 07:40:21;;;;;;;0.10;0.10;;;10.60;99.90;;;;;;4988983;28;20026;-74
2023/04/15 07:42:48;;;;;;;0.00;0.00;;;10.70;99.90;;;;;;4984514;28;20038;-74
2023/04/15 07:45:14;;;;;;;0.10;0.10;;;10.60;99.90;;;;;;4987785;28;20015;-74
2023/04/15 07:47:40;;;;;;;2.30;2.20;;;11.70;99.90;;;;;;4970635;28;20240;-74
2023/04/15 07:50:08;;;;;;;0.10;0.10;;;14.10;99.90;;;;;;4986266;28;20022;-73
2023/04/15 07:52:38;;;;;;;0.10;0.10;;;11.00;99.90;;;;;;4986563;28;20046;-74
2023/04/15 07:55:09;;;;;;;0.10;0.10;;;11.10;99.90;;;;;;4986058;28;20022;-74
2023/04/15 07:57:35;;;;;;;0.10;0.10;;;11.40;99.90;;;;;;4987312;28;20022;-74
2023/04/15 08:00:04;;;;;;;0.17;0.17;;;13.90;99.90;;;;;;4985922;28;20026;-75
2023/04/15 08:02:31;;;;;;;0.40;0.40;;;11.40;99.90;;;;;;4969233;28;20034;-74
2023/04/15 08:04:58;;;;;;;0.10;0.10;;;11.60;99.90;;;;;;4986383;28;20040;-75
2023/04/15 08:07:24;;;;;;;0.10;0.10;;;11.80;99.90;;;;;;4986986;28;20030;-74
2023/04/15 08:09:51;;;;;;;0.10;0.10;;;11.90;99.90;;;;;;4986861;28;20030;-74
2023/04/15 08:12:16;;;;;;;1.08;1.08;;;12.10;99.90;;;;;;4985048;28;20128;-74
2023/04/15 08:14:42;;;;;;;0.10;0.10;;;12.00;99.90;;;;;;4983424;28;20070;-77
2023/04/15 08:17:08;;;;;;;0.15;0.15;;;12.10;99.90;;;;;;4976448;28;20026;-74
2023/04/15 08:19:34;;;;;;;0.20;0.20;;;12.30;99.90;;;;;;4961167;28;20041;-74
2023/04/15 08:22:00;;;;;;;0.10;0.10;;;12.50;99.90;;;;;;4963793;28;20705;-74
2023/04/15 08:24:26;;;;;;;0.10;0.10;;;12.60;99.90;;;;;;4961088;28;20116;-74
2023/04/15 08:26:52;;;;;;;0.10;0.10;;;12.60;99.90;;;;;;4947516;28;20618;-75
2023/04/15 08:29:18;;;;;;;0.10;0.10;;;12.80;99.90;;;;;;4964580;28;20023;-75
2023/04/15 08:31:44;;;;;;;0.10;0.10;;;12.90;99.90;;;;;;4965358;28;20670;-75
2023/04/15 08:34:13;;;;;;;0.10;0.10;;;12.90;99.90;;;;;;4963152;28;20103;-74
2023/04/15 08:36:40;;;;;;;0.17;0.17;;;12.90;99.90;;;;;;4960235;28;20108;-73
2023/04/15 08:39:06;;;;;;;0.10;0.10;;;13.00;99.90;;;;;;4941680;28;20030;-74
2023/04/15 08:41:46;;;;;;;0.10;0.10;;;13.20;99.90;;;;;;4959785;28;20026;-74
2023/04/15 08:44:13;;;;;;;0.10;0.10;;;13.30;99.80;;;;;;4959001;28;20778;-75
2023/04/15 08:46:41;;;;;;;0.20;0.20;;;13.30;96.20;;;;;;4958798;28;20037;-79
2023/04/15 08:49:13;;;;;;;0.10;0.10;;;13.30;96.60;;;;;;4942499;28;20621;-74
2023/04/15 08:51:40;;;;;;;0.20;0.20;;;13.80;96.90;;;;;;4959252;28;20027;-74
2023/04/15 08:54:09;;;;;;;0.10;0.10;;;13.60;95.80;;;;;;4959232;28;20027;-76
2023/04/15 08:56:36;;;;;;;0.17;0.17;;;13.70;95.90;;;;;;4959218;28;20027;-75
2023/04/15 08:59:02;;;;;;;0.10;0.10;;;13.80;93.10;;;;;;4942301;28;20023;-82
2023/04/15 09:01:28;;;;;;;0.20;0.20;;;13.80;93.30;;;;;;4959214;28;20030;-75
2023/04/15 09:03:55;;;;;;;0.20;0.20;;;13.90;96.10;;;;;;4959006;28;20057;-74
2023/04/15 09:06:22;;;;;;;0.10;0.10;;;13.90;92.20;;;;;;4959112;28;20030;-75
2023/04/15 09:08:50;;;;;;;0.10;0.10;;;13.80;94.70;;;;;;4959134;28;20098;-74
2023/04/15 09:11:16;;;;;;;0.20;0.20;;;13.90;93.50;;;;;;4959175;28;20103;-74
2023/04/15 09:13:42;;;;;;;0.10;0.10;;;13.90;93.30;;;;;;4958804;28;20027;-73
2023/04/15 09:16:09;;;;;;;0.20;0.20;;;;;;;;;;4941341;28;20050;-73
2023/04/15 09:18:37;;;;;;;0.10;0.10;;;13.80;93.40;;;;;;4958586;28;20035;-73
2023/04/15 09:21:30;;;;;;;0.10;0.10;;;13.60;93.40;;;;;;4958534;28;20019;-73
2023/04/15 09:23:58;;;;;;;0.10;0.10;;;13.80;92.50;;;;;;4958490;28;20034;-74
2023/04/15 09:26:35;;;;;;;0.20;0.20;;;14.20;92.80;;;;;;4958873;28;20046;-76
2023/04/15 09:29:06;;;;;;;0.13;0.13;;;13.80;95.10;;;;;;4958356;28;20268;-74
2023/04/15 09:31:32;;;;;;;0.10;0.10;;;13.90;90.90;;;;;;4962538;28;20106;-74
2023/04/15 09:33:58;;;;;;;0.20;0.20;;;14.10;92.00;;;;;;4962160;28;20026;-74
2023/04/15 09:36:24;;;;;;;0.20;0.20;;;14.50;90.10;;;;;;4944755;28;20055;-74
2023/04/15 09:38:56;;;;;;;0.10;0.10;;;14.20;84.90;;;;;;4962187;28;20018;-74
2023/04/15 09:41:22;;;;;;;0.20;0.20;;;14.10;86.10;;;;;;4945031;28;20023;-77
2023/04/15 09:43:47;;;;;;;2.25;2.15;;;14.60;84.00;;;;;;4962048;28;20039;-77
2023/04/15 09:46:13;;;;;;;0.20;0.20;;;14.00;88.30;;;;;;4944090;28;20102;-80
2023/04/15 09:48:39;;;;;;;0.20;0.20;;;14.30;88.30;;;;;;4961894;28;20030;-72
2023/04/15 09:51:05;;;;;;;0.20;0.20;;;14.50;89.70;;;;;;4961980;28;20097;-74
2023/04/15 09:53:34;;;;;;;0.10;0.10;;;14.00;90.20;;;;;;4961983;28;20030;-74
2023/04/15 09:56:01;;;;;;;0.10;0.10;;;14.80;82.60;;;;;;4944873;28;20055;-74
2023/04/15 09:58:32;;;;;;;0.10;0.10;;;14.10;85.50;;;;;;4961930;28;20015;-82
2023/04/15 10:01:00;;;;;;;0.10;0.10;;;14.10;87.80;;;;;;4944865;28;20635;-73
2023/04/15 10:03:30;;;;;;;0.20;0.20;;;14.60;85.90;;;;;;4962138;28;20537;-74
2023/04/15 10:05:58;;;;;;;0.10;0.10;;;14.80;83.10;;;;;;4961750;28;20015;-77
2023/04/15 10:08:31;;;;;;;0.17;0.17;;;15.00;82.90;;;;;;4962360;28;20021;-74
2023/04/15 10:10:58;;;;;;;0.10;0.10;;;15.10;79.30;;;;;;4962070;28;20118;-84
2023/04/15 10:13:27;;;;;;;0.15;0.15;;;15.30;78.40;;;;;;4962685;28;20294;-79
2023/04/15 10:16:15;;;;;;;0.13;0.13;;;15.60;78.30;;;;;;4945446;28;20054;-77
2023/04/15 10:18:44;;;;;;;0.13;0.13;;;15.50;78.30;;;;;;4961668;28;20097;-74
2023/04/15 10:21:12;;;;;;;0.10;0.10;;;15.70;77.10;;;;;;4961904;28;20485;-74
2023/04/15 10:23:38;;;;;;;0.20;0.20;;;16.10;77.80;;;;;;4961293;28;20690;-78
2023/04/15 10:26:05;;;;;;;0.10;0.10;;;16.10;74.90;;;;;;4961489;28;20675;-74
2023/04/15 10:28:31;;;;;;;0.10;0.10;;;13.90;71.30;;;;;;4944296;28;20034;-74
2023/04/15 10:30:58;;;;;;;0.10;0.10;;;16.30;72.00;;;;;;4961076;28;20014;-78
2023/04/15 10:33:25;;;;;;;0.10;0.10;;;16.20;71.40;;;;;;4960927;28;20093;-74
2023/04/15 10:35:55;;;;;;;0.10;0.10;;;16.30;74.10;;;;;;4944142;28;20027;-73
2023/04/15 10:38:36;;;;;;;1.95;1.80;;;16.80;74.20;;;;;;4960999;28;20030;-72
2023/04/15 10:41:22;;;;;;;0.63;0.63;;;19.20;80.50;;;;;;4959695;28;20655;-73
2023/04/15 10:43:53;;;;;;;0.10;0.10;;;17.20;71.40;;;;;;4960744;28;20035;-73
2023/04/15 10:46:36;;;;;;;0.10;0.10;;;16.50;69.10;;;;;;4960778;28;20018;-78
2023/04/15 10:49:12;;;;;;;0.10;0.10;;;16.60;70.20;;;;;;4960888;28;20030;-74
2023/04/15 10:51:41;;;;;;;0.10;0.10;;;16.40;67.00;;;;;;4961208;28;20105;-80
2023/04/15 10:54:25;;;;;;;0.10;0.10;;;17.00;68.50;;;;;;4960898;28;20026;-73
2023/04/15 10:57:07;;;;;;;0.10;0.10;;;16.30;68.00;;;;;;4960551;28;20023;-73
2023/04/15 10:59:57;;;;;;;0.10;0.10;;;16.10;72.80;;;;;;4960884;28;20019;-73
2023/04/15 11:02:47;;;;;;;0.10;0.10;;;16.60;70.70;;;;;;4931214;28;20130;-74
2023/04/15 11:05:15;;;;;;;0.10;0.10;;;18.20;69.60;;;;;;4960639;28;20015;-74
2023/04/15 11:07:47;;;;;;;0.10;0.10;;;16.70;68.10;;;;;;4943168;28;20046;-74
2023/04/15 11:10:13;;;;;;;0.10;0.10;;;15.80;68.10;;;;;;4943138;28;20660;-75
2023/04/15 11:12:40;;;;;;;0.10;0.10;;;15.60;69.60;;;;;;4960700;28;20014;-74
2023/04/15 11:15:24;;;;;;;0.10;0.10;;;15.10;70.40;;;;;;4960817;28;20082;-75
2023/04/15 11:17:50;;;;;;;0.10;0.10;;;14.80;75.30;;;;;;4960180;28;20031;-75
2023/04/15 11:20:17;;;;;;;0.10;0.10;;;14.40;77.60;;;;;;4960075;28;20257;-77
2023/04/15 11:22:56;;;;;;;0.10;0.10;;;15.60;74.60;;;;;;4960189;28;20057;-75
2023/04/15 11:25:22;;;;;;;0.10;0.10;;;16.10;75.80;;;;;;4960548;28;20054;-75
2023/04/15 11:27:49;;;;;;;0.10;0.10;;;15.90;71.30;;;;;;4960280;28;20031;-75
2023/04/15 11:30:22;;;;;;;0.10;0.10;;;15.80;70.10;;;;;;4942967;28;20608;-74
2023/04/15 11:32:49;;;;;;;;;;;15.70;71.60;;;;;;4960585;28;20026;-79
2023/04/15 11:35:17;;;;;;;0.20;0.20;;;15.60;71.70;;;;;;4960979;28;19906;-75
2023/04/15 11:37:43;;;;;;;0.10;0.10;;;15.30;72.80;;;;;;4943155;28;20260;-74
2023/04/15 11:40:09;;;;;;;0.10;0.10;;;15.10;74.10;;;;;;4960128;28;20022;-75
2023/04/15 11:42:35;;;;;;;0.10;0.10;;;14.90;74.80;;;;;;4960033;28;20042;-77
2023/04/15 11:45:14;;;;;;;0.10;0.10;;;11.60;78.30;;;;;;4959938;28;20026;-74
2023/04/15 11:47:41;;;;;;;0.10;0.10;;;14.40;80.20;;;;;;4960139;28;20069;-74
2023/04/15 11:50:18;;;;;;;0.10;0.10;;;14.50;79.40;;;;;;4960302;28;20617;-73
2023/04/15 11:53:03;;;;;;;1.55;1.55;;;14.60;76.70;;;;;;4959937;28;20081;-73
2023/04/15 11:55:30;;;;;;;0.20;0.20;;;14.70;71.90;;;;;;4959938;28;20015;-73
2023/04/15 11:58:25;;;;;;;0.10;0.10;;;15.80;71.60;;;;;;4960307;28;20053;-72
2023/04/15 12:00:56;;;;;;;0.20;0.20;;;16.10;67.30;;;;;;4959560;28;20031;-74
2023/04/15 12:03:30;;;;;;;0.10;0.10;;;16.60;66.80;;;;;;4962385;28;20039;-75
2023/04/15 12:06:06;;;;;;;0.77;0.73;;;17.00;64.10;;;;;;4962467;28;20054;-75
2023/04/15 12:08:57;;;;;;;0.10;0.10;;;17.10;63.20;;;;;;4960867;28;20027;-75
2023/04/15 12:11:25;;;;;;;0.10;0.10;;;17.00;61.40;;;;;;4960580;28;20687;-74
2023/04/15 12:13:53;;;;;;;0.10;0.10;;;16.80;62.30;;;;;;4961102;28;20030;-75
2023/04/15 12:16:20;;;;;;;0.10;0.10;;;17.00;62.20;;;;;;4960856;28;20025;-75
2023/04/15 12:18:47;;;;;;;0.10;0.10;;;17.00;59.40;;;;;;4959434;28;20069;-75
2023/04/15 12:21:13;;;;;;;0.20;0.20;;;17.10;60.20;;;;;;4959525;28;20030;-75
2023/04/15 12:23:53;;;;;;;0.10;0.10;;;17.10;60.00;;;;;;4960160;28;20062;-76
2023/04/15 12:26:42;;;;;;;0.10;0.10;;;17.30;59.70;;;;;;4959606;28;20725;-73
2023/04/15 12:29:09;;;;;;;0.10;0.10;;;17.30;59.50;;;;;;4959751;28;20030;-73
2023/04/15 12:31:36;;;;;;;0.10;0.10;;;18.50;59.80;;;;;;4960252;28;20098;-80
2023/04/15 12:34:03;;;;;;;0.10;0.10;;;17.30;59.30;;;;;;4960418;28;20322;-76
2023/04/15 12:36:35;;;;;;;0.10;0.10;;;17.30;58.80;;;;;;4960316;28;20023;-81
2023/04/15 12:39:02;;;;;;;0.10;0.10;;;17.40;57.10;;;;;;4960197;28;20033;-73
2023/04/15 12:41:28;;;;;;;0.10;0.10;;;17.70;57.30;;;;;;4942744;28;20031;-73
2023/04/15 12:43:53;;;;;;;0.10;0.10;;;18.20;56.50;;;;;;4958702;28;20027;-73
2023/04/15 12:46:19;;;;;;;0.10;0.10;;;18.20;55.30;;;;;;4959414;28;20034;-73
2023/04/15 12:48:45;;;;;;;0.10;0.10;;;17.90;54.70;;;;;;4958888;28;20098;-73
2023/04/15 12:51:11;;;;;;;0.10;0.10;;;17.30;56.40;;;;;;4941330;28;20038;-79
2023/04/15 12:53:37;;;;;;;3.30;3.20;;;16.90;55.50;;;;;;4958877;28;20664;-73
2023/04/15 12:56:03;;;;;;;0.10;0.10;;;16.70;57.50;;;;;;4941700;28;20117;-79
2023/04/15 12:58:28;;;;;;;0.10;0.10;;;16.40;58.90;;;;;;4959079;28;20150;-73
2023/04/15 13:00:54;;;;;;;0.32;0.32;;;15.90;60.70;;;;;;4958951;28;20414;-73
2023/04/15 13:03:20;;;;;;;0.28;0.28;;;15.60;61.90;;;;;;4941687;28;20617;-77
2023/04/15 13:05:46;;;;;;;0.10;0.10;;;15.20;62.90;;;;;;4958813;28;20023;-76